sensor_id;sensor_type;location;lat;lon;timestamp;P1;durP1;ratioP1;P2;durP2;ratioP2
789;SDS011;378;48.844;9.156;2023-05-10T00:01:20;0.40;;;0.40;;
789;SDS011;378;48.844;9.156;2023-05-10T00:03:47;5.00;;;0.63;;
789;SDS011;378;48.844;9.156;2023-05-10T00:06:13;0.75;;;0.55;;
789;SDS011;378;48.844;9.156;2023-05-10T00:08:40;0.80;;;0.50;;
789;SDS011;378;48.844;9.156;2023-05-10T00:11:07;0.93;;;0.50;;
789;SDS011;378;48.844;9.156;2023-05-10T00:13:35;0.50;;;0.50;;
789;SDS011;378;48.844;9.156;2023-05-10T00:16:02;0.40;;;0.40;;
789;SDS011;378;48.844;9.156;2023-05-10T00:18:29;0.40;;;0.40;;
789;SDS011;378;48.844;9.156;2023-05-10T00:20:56;0.70;;;0.60;;
789;SDS011;378;48.844;9.156;2023-05-10T00:23:23;0.52;;;0.47;;
789;SDS011;378;48.844;9.156;2023-05-10T00:25:49;3.05;;;0.40;;
789;SDS011;378;48.844;9.156;2023-05-10T00:28:17;0.35;;;0.35;;
789;SDS011;378;48.844;9.156;2023-05-10T00:30:46;0.43;;;0.32;;
789;SDS011;378;48.844;9.156;2023-05-10T00:33:12;1.08;;;0.38;;
789;SDS011;378;48.844;9.156;2023-05-10T00:35:39;1.60;;;0.65;;
789;SDS011;378;48.844;9.156;2023-05-10T00:38:06;3.90;;;0.50;;
789;SDS011;378;48.844;9.156;2023-05-10T00:40:35;1.80;;;0.70;;
789;SDS011;378;48.844;9.156;2023-05-10T00:43:02;0.30;;;0.30;;
789;SDS011;378;48.844;9.156;2023-05-10T00:45:29;3.72;;;0.30;;
789;SDS011;378;48.844;9.156;2023-05-10T00:47:57;0.40;;;0.40;;
789;SDS011;378;48.844;9.156;2023-05-10T00:50:25;0.68;;;0.50;;
789;SDS011;378;48.844;9.156;2023-05-10T00:52:52;0.93;;;0.40;;
789;SDS011;378;48.844;9.156;2023-05-10T00:55:19;0.47;;;0.40;;
789;SDS011;378;48.844;9.156;2023-05-10T00:57:46;0.50;;;0.30;;
789;SDS011;378;48.844;9.156;2023-05-10T01:00:13;0.50;;;0.40;;
789;SDS011;378;48.844;9.156;2023-05-10T01:02:43;2.65;;;0.50;;
789;SDS011;378;48.844;9.156;2023-05-10T01:05:12;0.43;;;0.43;;
789;SDS011;378;48.844;9.156;2023-05-10T01:07:39;2.95;;;0.57;;
789;SDS011;378;48.844;9.156;2023-05-10T01:10:06;0.40;;;0.40;;
789;SDS011;378;48.844;9.156;2023-05-10T01:12:34;0.63;;;0.50;;
789;SDS011;378;48.844;9.156;2023-05-10T01:15:04;2.47;;;0.65;;
789;SDS011;378;48.844;9.156;2023-05-10T01:17:32;0.60;;;0.60;;
789;SDS011;378;48.844;9.156;2023-05-10T01:20:01;2.88;;;0.60;;
789;SDS011;378;48.844;9.156;2023-05-10T01:22:38;3.47;;;0.60;;
789;SDS011;378;48.844;9.156;2023-05-10T01:25:26;2.15;;;0.75;;
789;SDS011;378;48.844;9.156;2023-05-10T01:28:23;0.80;;;0.70;;
789;SDS011;378;48.844;9.156;2023-05-10T01:31:22;1.05;;;0.80;;
789;SDS011;378;48.844;9.156;2023-05-10T01:33:59;3.42;;;0.90;;
789;SDS011;378;48.844;9.156;2023-05-10T01:36:30;1.10;;;1.00;;
789;SDS011;378;48.844;9.156;2023-05-10T01:39:00;1.23;;;0.90;;
789;SDS011;378;48.844;9.156;2023-05-10T01:41:36;0.93;;;0.75;;
789;SDS011;378;48.844;9.156;2023-05-10T01:44:14;0.73;;;0.73;;
789;SDS011;378;48.844;9.156;2023-05-10T01:46:48;1.00;;;0.77;;
789;SDS011;378;48.844;9.156;2023-05-10T01:49:22;2.97;;;1.00;;
789;SDS011;378;48.844;9.156;2023-05-10T01:51:52;0.85;;;0.80;;
789;SDS011;378;48.844;9.156;2023-05-10T01:54:21;1.30;;;1.20;;
789;SDS011;378;48.844;9.156;2023-05-10T01:56:52;1.25;;;1.15;;
789;SDS011;378;48.844;9.156;2023-05-10T01:59:25;1.77;;;1.13;;
789;SDS011;378;48.844;9.156;2023-05-10T02:01:56;2.60;;;1.08;;
789;SDS011;378;48.844;9.156;2023-05-10T02:04:26;1.80;;;1.17;;
789;SDS011;378;48.844;9.156;2023-05-10T02:06:54;2.53;;;1.20;;
789;SDS011;378;48.844;9.156;2023-05-10T02:09:22;1.48;;;1.27;;
789;SDS011;378;48.844;9.156;2023-05-10T02:11:51;2.92;;;1.33;;
789;SDS011;378;48.844;9.156;2023-05-10T02:14:20;4.65;;;1.20;;
789;SDS011;378;48.844;9.156;2023-05-10T02:16:49;0.98;;;0.90;;
789;SDS011;378;48.844;9.156;2023-05-10T02:19:17;1.58;;;1.10;;
789;SDS011;378;48.844;9.156;2023-05-10T02:21:47;1.15;;;1.05;;
789;SDS011;378;48.844;9.156;2023-05-10T02:24:17;1.10;;;1.00;;
789;SDS011;378;48.844;9.156;2023-05-10T02:26:44;2.15;;;1.00;;
789;SDS011;378;48.844;9.156;2023-05-10T02:29:13;1.30;;;0.93;;
789;SDS011;378;48.844;9.156;2023-05-10T02:31:41;1.98;;;1.00;;
789;SDS011;378;48.844;9.156;2023-05-10T02:34:08;4.40;;;1.20;;
789;SDS011;378;48.844;9.156;2023-05-10T02:36:37;1.17;;;1.02;;
789;SDS011;378;48.844;9.156;2023-05-10T02:39:07;1.48;;;1.10;;
789;SDS011;378;48.844;9.156;2023-05-10T02:41:37;3.72;;;1.10;;
789;SDS011;378;48.844;9.156;2023-05-10T02:44:07;2.20;;;1.25;;
789;SDS011;378;48.844;9.156;2023-05-10T02:46:35;1.35;;;1.17;;
789;SDS011;378;48.844;9.156;2023-05-10T02:49:02;1.25;;;1.05;;
789;SDS011;378;48.844;9.156;2023-05-10T02:51:31;4.00;;;1.13;;
789;SDS011;378;48.844;9.156;2023-05-10T02:54:01;2.97;;;1.20;;
789;SDS011;378;48.844;9.156;2023-05-10T02:56:38;1.52;;;1.30;;
789;SDS011;378;48.844;9.156;2023-05-10T02:59:13;1.45;;;1.35;;
789;SDS011;378;48.844;9.156;2023-05-10T03:01:40;1.27;;;1.17;;
789;SDS011;378;48.844;9.156;2023-05-10T03:04:07;3.67;;;1.30;;
789;SDS011;378;48.844;9.156;2023-05-10T03:06:34;3.05;;;1.17;;
789;SDS011;378;48.844;9.156;2023-05-10T03:09:01;3.47;;;1.65;;
789;SDS011;378;48.844;9.156;2023-05-10T03:11:32;1.67;;;1.50;;
789;SDS011;378;48.844;9.156;2023-05-10T03:14:14;2.17;;;1.73;;
789;SDS011;378;48.844;9.156;2023-05-10T03:16:52;2.95;;;1.50;;
789;SDS011;378;48.844;9.156;2023-05-10T03:19:26;3.13;;;1.73;;
789;SDS011;378;48.844;9.156;2023-05-10T03:21:58;2.33;;;1.67;;
789;SDS011;378;48.844;9.156;2023-05-10T03:24:29;2.72;;;1.83;;
789;SDS011;378;48.844;9.156;2023-05-10T03:26:58;4.93;;;2.40;;
789;SDS011;378;48.844;9.156;2023-05-10T03:29:27;3.47;;;2.40;;
789;SDS011;378;48.844;9.156;2023-05-10T03:31:57;4.93;;;2.78;;
789;SDS011;378;48.844;9.156;2023-05-10T03:34:24;4.20;;;2.92;;
789;SDS011;378;48.844;9.156;2023-05-10T03:36:51;5.15;;;3.38;;
789;SDS011;378;48.844;9.156;2023-05-10T03:39:18;9.52;;;4.28;;
789;SDS011;378;48.844;9.156;2023-05-10T03:41:46;6.38;;;4.03;;
789;SDS011;378;48.844;9.156;2023-05-10T03:44:14;8.52;;;4.60;;
789;SDS011;378;48.844;9.156;2023-05-10T03:46:41;6.35;;;3.47;;
789;SDS011;378;48.844;9.156;2023-05-10T03:49:08;6.03;;;3.33;;
789;SDS011;378;48.844;9.156;2023-05-10T03:51:35;5.05;;;3.47;;
789;SDS011;378;48.844;9.156;2023-05-10T03:54:01;8.88;;;3.38;;
789;SDS011;378;48.844;9.156;2023-05-10T03:56:28;8.85;;;3.28;;
789;SDS011;378;48.844;9.156;2023-05-10T03:58:55;4.93;;;2.92;;
789;SDS011;378;48.844;9.156;2023-05-10T04:01:23;5.28;;;2.90;;
789;SDS011;378;48.844;9.156;2023-05-10T04:03:50;3.50;;;2.50;;
789;SDS011;378;48.844;9.156;2023-05-10T04:06:17;4.28;;;2.60;;
789;SDS011;378;48.844;9.156;2023-05-10T04:08:44;5.43;;;2.50;;
789;SDS011;378;48.844;9.156;2023-05-10T04:11:11;4.72;;;2.78;;
789;SDS011;378;48.844;9.156;2023-05-10T04:13:39;8.38;;;2.95;;
789;SDS011;378;48.844;9.156;2023-05-10T04:16:06;7.13;;;2.78;;
789;SDS011;378;48.844;9.156;2023-05-10T04:18:34;8.13;;;2.60;;
789;SDS011;378;48.844;9.156;2023-05-10T04:21:01;3.50;;;2.33;;
789;SDS011;378;48.844;9.156;2023-05-10T04:23:28;3.30;;;2.47;;
789;SDS011;378;48.844;9.156;2023-05-10T04:25:58;3.40;;;2.50;;
789;SDS011;378;48.844;9.156;2023-05-10T04:28:26;3.03;;;2.42;;
789;SDS011;378;48.844;9.156;2023-05-10T04:30:53;3.63;;;2.50;;
789;SDS011;378;48.844;9.156;2023-05-10T04:33:27;3.05;;;2.50;;
789;SDS011;378;48.844;9.156;2023-05-10T04:35:55;3.38;;;2.13;;
789;SDS011;378;48.844;9.156;2023-05-10T04:38:22;4.20;;;2.15;;
789;SDS011;378;48.844;9.156;2023-05-10T04:40:49;2.22;;;1.83;;
789;SDS011;378;48.844;9.156;2023-05-10T04:43:15;1.90;;;1.30;;
789;SDS011;378;48.844;9.156;2023-05-10T04:45:42;3.40;;;1.40;;
789;SDS011;378;48.844;9.156;2023-05-10T04:48:09;1.80;;;1.20;;
789;SDS011;378;48.844;9.156;2023-05-10T04:50:36;4.95;;;1.33;;
789;SDS011;378;48.844;9.156;2023-05-10T04:53:04;2.17;;;1.52;;
789;SDS011;378;48.844;9.156;2023-05-10T04:55:31;2.65;;;1.10;;
789;SDS011;378;48.844;9.156;2023-05-10T04:57:58;1.80;;;1.33;;
789;SDS011;378;48.844;9.156;2023-05-10T05:00:25;2.97;;;1.30;;
789;SDS011;378;48.844;9.156;2023-05-10T05:02:52;3.70;;;1.38;;
789;SDS011;378;48.844;9.156;2023-05-10T05:05:19;1.63;;;1.38;;
789;SDS011;378;48.844;9.156;2023-05-10T05:07:46;2.20;;;1.52;;
789;SDS011;378;48.844;9.156;2023-05-10T05:10:14;3.20;;;1.40;;
789;SDS011;378;48.844;9.156;2023-05-10T05:12:41;3.50;;;1.70;;
789;SDS011;378;48.844;9.156;2023-05-10T05:15:08;1.67;;;1.40;;
789;SDS011;378;48.844;9.156;2023-05-10T05:17:35;3.30;;;1.38;;
789;SDS011;378;48.844;9.156;2023-05-10T05:20:02;2.60;;;1.58;;
789;SDS011;378;48.844;9.156;2023-05-10T05:22:30;2.83;;;1.25;;
789;SDS011;378;48.844;9.156;2023-05-10T05:24:57;1.23;;;1.10;;
789;SDS011;378;48.844;9.156;2023-05-10T05:27:25;2.75;;;1.42;;
789;SDS011;378;48.844;9.156;2023-05-10T05:29:53;1.70;;;1.30;;
789;SDS011;378;48.844;9.156;2023-05-10T05:32:20;1.77;;;1.23;;
789;SDS011;378;48.844;9.156;2023-05-10T05:34:47;2.47;;;1.20;;
789;SDS011;378;48.844;9.156;2023-05-10T05:37:14;1.63;;;1.08;;
789;SDS011;378;48.844;9.156;2023-05-10T05:39:41;5.10;;;1.20;;
789;SDS011;378;48.844;9.156;2023-05-10T05:42:08;1.52;;;1.20;;
789;SDS011;378;48.844;9.156;2023-05-10T05:44:36;1.42;;;1.10;;
789;SDS011;378;48.844;9.156;2023-05-10T05:47:04;3.28;;;1.38;;
789;SDS011;378;48.844;9.156;2023-05-10T05:49:31;5.03;;;1.30;;
789;SDS011;378;48.844;9.156;2023-05-10T05:51:58;4.80;;;1.40;;
789;SDS011;378;48.844;9.156;2023-05-10T05:54:26;2.63;;;1.58;;
789;SDS011;378;48.844;9.156;2023-05-10T05:56:53;4.28;;;1.50;;
789;SDS011;378;48.844;9.156;2023-05-10T05:59:20;3.65;;;1.42;;
789;SDS011;378;48.844;9.156;2023-05-10T06:01:49;2.58;;;1.27;;
789;SDS011;378;48.844;9.156;2023-05-10T06:04:16;3.17;;;1.50;;
789;SDS011;378;48.844;9.156;2023-05-10T06:06:43;2.60;;;1.48;;
789;SDS011;378;48.844;9.156;2023-05-10T06:09:10;2.45;;;1.90;;
789;SDS011;378;48.844;9.156;2023-05-10T06:11:37;2.78;;;1.50;;
789;SDS011;378;48.844;9.156;2023-05-10T06:14:04;4.13;;;1.70;;
789;SDS011;378;48.844;9.156;2023-05-10T06:16:32;3.65;;;1.60;;
789;SDS011;378;48.844;9.156;2023-05-10T06:19:01;2.30;;;1.70;;
789;SDS011;378;48.844;9.156;2023-05-10T06:21:27;3.00;;;1.60;;
789;SDS011;378;48.844;9.156;2023-05-10T06:23:55;2.58;;;1.80;;
789;SDS011;378;48.844;9.156;2023-05-10T06:26:21;4.60;;;2.00;;
789;SDS011;378;48.844;9.156;2023-05-10T06:28:48;3.50;;;1.70;;
789;SDS011;378;48.844;9.156;2023-05-10T06:31:15;3.28;;;1.45;;
789;SDS011;378;48.844;9.156;2023-05-10T06:33:42;2.08;;;1.42;;
789;SDS011;378;48.844;9.156;2023-05-10T06:36:11;2.22;;;1.38;;
789;SDS011;378;48.844;9.156;2023-05-10T06:38:38;8.77;;;1.40;;
789;SDS011;378;48.844;9.156;2023-05-10T06:41:05;1.98;;;1.40;;
789;SDS011;378;48.844;9.156;2023-05-10T06:43:32;2.00;;;1.42;;
789;SDS011;378;48.844;9.156;2023-05-10T06:45:59;2.45;;;1.40;;
789;SDS011;378;48.844;9.156;2023-05-10T06:48:25;3.08;;;1.50;;
789;SDS011;378;48.844;9.156;2023-05-10T06:50:52;1.42;;;1.33;;
789;SDS011;378;48.844;9.156;2023-05-10T06:53:20;3.70;;;1.48;;
789;SDS011;378;48.844;9.156;2023-05-10T06:55:48;2.58;;;1.60;;
789;SDS011;378;48.844;9.156;2023-05-10T06:58:15;3.95;;;1.30;;
789;SDS011;378;48.844;9.156;2023-05-10T07:00:42;4.20;;;1.48;;
789;SDS011;378;48.844;9.156;2023-05-10T07:03:10;1.65;;;1.17;;
789;SDS011;378;48.844;9.156;2023-05-10T07:05:37;3.47;;;1.05;;
789;SDS011;378;48.844;9.156;2023-05-10T07:08:04;5.15;;;1.30;;
789;SDS011;378;48.844;9.156;2023-05-10T07:10:32;3.22;;;1.13;;
789;SDS011;378;48.844;9.156;2023-05-10T07:12:59;3.22;;;1.05;;
789;SDS011;378;48.844;9.156;2023-05-10T07:15:26;2.15;;;1.15;;
789;SDS011;378;48.844;9.156;2023-05-10T07:17:53;3.40;;;1.20;;
789;SDS011;378;48.844;9.156;2023-05-10T07:20:20;1.60;;;1.20;;
789;SDS011;378;48.844;9.156;2023-05-10T07:22:47;2.35;;;1.08;;
789;SDS011;378;48.844;9.156;2023-05-10T07:25:14;1.25;;;1.10;;
789;SDS011;378;48.844;9.156;2023-05-10T07:27:42;6.47;;;1.10;;
789;SDS011;378;48.844;9.156;2023-05-10T07:30:09;1.42;;;1.20;;
789;SDS011;378;48.844;9.156;2023-05-10T07:32:36;5.32;;;1.60;;
789;SDS011;378;48.844;9.156;2023-05-10T07:35:04;1.23;;;1.00;;
789;SDS011;378;48.844;9.156;2023-05-10T07:37:31;1.50;;;1.00;;
789;SDS011;378;48.844;9.156;2023-05-10T07:39:58;0.80;;;0.73;;
789;SDS011;378;48.844;9.156;2023-05-10T07:42:25;3.00;;;0.90;;
789;SDS011;378;48.844;9.156;2023-05-10T07:44:53;0.68;;;0.68;;
789;SDS011;378;48.844;9.156;2023-05-10T07:47:20;2.47;;;1.00;;
789;SDS011;378;48.844;9.156;2023-05-10T07:49:47;1.48;;;0.80;;
789;SDS011;378;48.844;9.156;2023-05-10T07:52:14;2.35;;;0.77;;
789;SDS011;378;48.844;9.156;2023-05-10T07:54:40;1.85;;;0.90;;
789;SDS011;378;48.844;9.156;2023-05-10T07:57:07;1.05;;;0.70;;
789;SDS011;378;48.844;9.156;2023-05-10T07:59:34;4.93;;;0.88;;
789;SDS011;378;48.844;9.156;2023-05-10T08:02:02;2.80;;;0.77;;
789;SDS011;378;48.844;9.156;2023-05-10T08:04:29;0.80;;;0.60;;
789;SDS011;378;48.844;9.156;2023-05-10T08:06:56;1.90;;;0.70;;
789;SDS011;378;48.844;9.156;2023-05-10T08:09:23;0.73;;;0.70;;
789;SDS011;378;48.844;9.156;2023-05-10T08:11:49;0.73;;;0.73;;
789;SDS011;378;48.844;9.156;2023-05-10T08:14:16;2.72;;;0.57;;
789;SDS011;378;48.844;9.156;2023-05-10T08:16:43;1.15;;;0.70;;
789;SDS011;378;48.844;9.156;2023-05-10T08:19:11;0.55;;;0.50;;
789;SDS011;378;48.844;9.156;2023-05-10T08:21:38;6.15;;;0.60;;
789;SDS011;378;48.844;9.156;2023-05-10T08:24:07;2.40;;;0.60;;
789;SDS011;378;48.844;9.156;2023-05-10T08:26:34;0.50;;;0.50;;
789;SDS011;378;48.844;9.156;2023-05-10T08:29:00;2.45;;;0.68;;
789;SDS011;378;48.844;9.156;2023-05-10T08:31:28;1.75;;;0.50;;
789;SDS011;378;48.844;9.156;2023-05-10T08:33:54;0.40;;;0.40;;
789;SDS011;378;48.844;9.156;2023-05-10T08:36:23;4.03;;;0.60;;
789;SDS011;378;48.844;9.156;2023-05-10T08:38:50;1.30;;;0.40;;
789;SDS011;378;48.844;9.156;2023-05-10T08:41:18;2.33;;;0.50;;
789;SDS011;378;48.844;9.156;2023-05-10T08:43:46;0.60;;;0.50;;
789;SDS011;378;48.844;9.156;2023-05-10T08:46:14;0.40;;;0.40;;
789;SDS011;378;48.844;9.156;2023-05-10T08:48:43;0.63;;;0.43;;
789;SDS011;378;48.844;9.156;2023-05-10T08:51:12;1.70;;;0.55;;
789;SDS011;378;48.844;9.156;2023-05-10T08:53:42;3.80;;;1.10;;
789;SDS011;378;48.844;9.156;2023-05-10T08:56:10;0.45;;;0.35;;
789;SDS011;378;48.844;9.156;2023-05-10T08:58:37;3.10;;;0.30;;
789;SDS011;378;48.844;9.156;2023-05-10T09:01:04;0.70;;;0.40;;
789;SDS011;378;48.844;9.156;2023-05-10T09:03:31;2.00;;;0.40;;
789;SDS011;378;48.844;9.156;2023-05-10T09:05:58;2.38;;;0.40;;
789;SDS011;378;48.844;9.156;2023-05-10T09:08:25;0.50;;;0.50;;
789;SDS011;378;48.844;9.156;2023-05-10T09:10:54;3.20;;;0.40;;
789;SDS011;378;48.844;9.156;2023-05-10T09:13:21;0.98;;;0.40;;
789;SDS011;378;48.844;9.156;2023-05-10T09:15:49;2.33;;;0.50;;
789;SDS011;378;48.844;9.156;2023-05-10T09:18:17;1.83;;;0.57;;
789;SDS011;378;48.844;9.156;2023-05-10T09:20:44;1.65;;;0.38;;
789;SDS011;378;48.844;9.156;2023-05-10T09:23:10;2.70;;;0.30;;
789;SDS011;378;48.844;9.156;2023-05-10T09:25:38;1.02;;;0.50;;
789;SDS011;378;48.844;9.156;2023-05-10T09:28:07;0.20;;;0.20;;
789;SDS011;378;48.844;9.156;2023-05-10T09:30:35;1.38;;;0.30;;
789;SDS011;378;48.844;9.156;2023-05-10T09:33:02;0.40;;;0.40;;
789;SDS011;378;48.844;9.156;2023-05-10T09:35:30;0.55;;;0.40;;
789;SDS011;378;48.844;9.156;2023-05-10T09:37:59;0.73;;;0.40;;
789;SDS011;378;48.844;9.156;2023-05-10T09:40:28;0.95;;;0.40;;
789;SDS011;378;48.844;9.156;2023-05-10T09:42:56;2.58;;;0.40;;
789;SDS011;378;48.844;9.156;2023-05-10T09:45:26;2.28;;;0.55;;
789;SDS011;378;48.844;9.156;2023-05-10T09:47:53;2.35;;;0.40;;
789;SDS011;378;48.844;9.156;2023-05-10T09:50:21;0.90;;;0.43;;
789;SDS011;378;48.844;9.156;2023-05-10T09:52:49;1.00;;;0.40;;
789;SDS011;378;48.844;9.156;2023-05-10T09:55:18;1.35;;;0.40;;
789;SDS011;378;48.844;9.156;2023-05-10T09:57:46;0.60;;;0.40;;
789;SDS011;378;48.844;9.156;2023-05-10T10:00:17;0.85;;;0.40;;
789;SDS011;378;48.844;9.156;2023-05-10T10:02:47;0.50;;;0.50;;
789;SDS011;378;48.844;9.156;2023-05-10T10:05:14;1.48;;;0.60;;
789;SDS011;378;48.844;9.156;2023-05-10T10:07:41;3.42;;;0.50;;
789;SDS011;378;48.844;9.156;2023-05-10T10:10:09;2.05;;;0.50;;
789;SDS011;378;48.844;9.156;2023-05-10T10:15:06;1.55;;;0.50;;
789;SDS011;378;48.844;9.156;2023-05-10T10:17:35;1.17;;;0.50;;
789;SDS011;378;48.844;9.156;2023-05-10T10:20:04;2.60;;;0.60;;
789;SDS011;378;48.844;9.156;2023-05-10T10:22:32;2.75;;;0.70;;
789;SDS011;378;48.844;9.156;2023-05-10T10:24:59;1.27;;;0.57;;
789;SDS011;378;48.844;9.156;2023-05-10T10:27:28;1.25;;;0.60;;
789;SDS011;378;48.844;9.156;2023-05-10T10:30:04;3.00;;;0.50;;
789;SDS011;378;48.844;9.156;2023-05-10T10:32:44;3.85;;;0.57;;
789;SDS011;378;48.844;9.156;2023-05-10T10:35:34;4.13;;;0.47;;
789;SDS011;378;48.844;9.156;2023-05-10T10:38:01;0.40;;;0.40;;
789;SDS011;378;48.844;9.156;2023-05-10T10:40:29;2.40;;;0.50;;
789;SDS011;378;48.844;9.156;2023-05-10T10:42:57;0.90;;;0.60;;
789;SDS011;378;48.844;9.156;2023-05-10T10:45:47;2.85;;;0.38;;
789;SDS011;378;48.844;9.156;2023-05-10T10:48:35;2.20;;;0.30;;
789;SDS011;378;48.844;9.156;2023-05-10T10:51:04;0.30;;;0.30;;
789;SDS011;378;48.844;9.156;2023-05-10T10:53:32;2.00;;;0.50;;
789;SDS011;378;48.844;9.156;2023-05-10T10:56:02;2.08;;;0.40;;
789;SDS011;378;48.844;9.156;2023-05-10T10:58:33;1.02;;;0.30;;
789;SDS011;378;48.844;9.156;2023-05-10T11:03:55;0.50;;;0.40;;
789;SDS011;378;48.844;9.156;2023-05-10T11:06:45;0.70;;;0.40;;
789;SDS011;378;48.844;9.156;2023-05-10T11:09:12;2.72;;;0.60;;
789;SDS011;378;48.844;9.156;2023-05-10T11:11:49;3.15;;;0.40;;
789;SDS011;378;48.844;9.156;2023-05-10T11:14:20;0.77;;;0.35;;
789;SDS011;378;48.844;9.156;2023-05-10T11:16:47;0.60;;;0.47;;
789;SDS011;378;48.844;9.156;2023-05-10T11:19:15;1.30;;;0.50;;
789;SDS011;378;48.844;9.156;2023-05-10T11:21:48;5.00;;;0.40;;
789;SDS011;378;48.844;9.156;2023-05-10T11:24:17;0.98;;;0.50;;
789;SDS011;378;48.844;9.156;2023-05-10T11:26:45;0.30;;;0.30;;
789;SDS011;378;48.844;9.156;2023-05-10T11:29:12;1.15;;;0.30;;
789;SDS011;378;48.844;9.156;2023-05-10T11:31:42;3.13;;;0.57;;
789;SDS011;378;48.844;9.156;2023-05-10T11:34:11;2.08;;;0.55;;
789;SDS011;378;48.844;9.156;2023-05-10T11:36:51;0.70;;;0.40;;
789;SDS011;378;48.844;9.156;2023-05-10T11:39:19;0.43;;;0.40;;
789;SDS011;378;48.844;9.156;2023-05-10T11:41:47;0.90;;;0.57;;
789;SDS011;378;48.844;9.156;2023-05-10T11:44:15;1.40;;;0.43;;
789;SDS011;378;48.844;9.156;2023-05-10T11:46:42;3.83;;;0.57;;
789;SDS011;378;48.844;9.156;2023-05-10T11:49:09;2.03;;;0.70;;
789;SDS011;378;48.844;9.156;2023-05-10T11:51:38;2.17;;;0.60;;
789;SDS011;378;48.844;9.156;2023-05-10T11:54:09;4.20;;;0.60;;
789;SDS011;378;48.844;9.156;2023-05-10T11:56:37;4.85;;;0.80;;
789;SDS011;378;48.844;9.156;2023-05-10T11:59:04;2.38;;;0.88;;
789;SDS011;378;48.844;9.156;2023-05-10T12:01:31;3.47;;;0.93;;
789;SDS011;378;48.844;9.156;2023-05-10T12:03:58;1.17;;;0.90;;
789;SDS011;378;48.844;9.156;2023-05-10T12:06:26;1.77;;;0.70;;
789;SDS011;378;48.844;9.156;2023-05-10T12:08:56;1.25;;;0.70;;
789;SDS011;378;48.844;9.156;2023-05-10T12:11:25;4.68;;;0.90;;
789;SDS011;378;48.844;9.156;2023-05-10T12:13:54;2.30;;;0.90;;
789;SDS011;378;48.844;9.156;2023-05-10T12:16:24;3.95;;;0.60;;
789;SDS011;378;48.844;9.156;2023-05-10T12:18:52;2.92;;;0.73;;
789;SDS011;378;48.844;9.156;2023-05-10T12:21:21;1.08;;;0.52;;
789;SDS011;378;48.844;9.156;2023-05-10T12:23:49;2.08;;;0.70;;
789;SDS011;378;48.844;9.156;2023-05-10T12:26:18;2.50;;;0.80;;
789;SDS011;378;48.844;9.156;2023-05-10T12:28:48;3.05;;;0.80;;
789;SDS011;378;48.844;9.156;2023-05-10T12:31:17;3.65;;;1.33;;
789;SDS011;378;48.844;9.156;2023-05-10T12:33:44;3.95;;;0.60;;
789;SDS011;378;48.844;9.156;2023-05-10T12:36:12;0.75;;;0.75;;
789;SDS011;378;48.844;9.156;2023-05-10T12:38:41;2.17;;;0.70;;
789;SDS011;378;48.844;9.156;2023-05-10T12:41:09;2.67;;;0.60;;
789;SDS011;378;48.844;9.156;2023-05-10T12:43:37;1.50;;;0.40;;
789;SDS011;378;48.844;9.156;2023-05-10T12:46:06;3.83;;;0.68;;
789;SDS011;378;48.844;9.156;2023-05-10T12:48:34;1.25;;;0.50;;
789;SDS011;378;48.844;9.156;2023-05-10T12:51:01;2.97;;;0.65;;
789;SDS011;378;48.844;9.156;2023-05-10T12:53:28;2.08;;;0.60;;
789;SDS011;378;48.844;9.156;2023-05-10T12:55:55;4.20;;;0.70;;
789;SDS011;378;48.844;9.156;2023-05-10T12:58:22;1.02;;;0.47;;
789;SDS011;378;48.844;9.156;2023-05-10T13:00:49;4.72;;;0.55;;
789;SDS011;378;48.844;9.156;2023-05-10T13:03:18;2.47;;;0.55;;
789;SDS011;378;48.844;9.156;2023-05-10T13:05:45;2.13;;;0.75;;
789;SDS011;378;48.844;9.156;2023-05-10T13:08:12;3.15;;;0.55;;
789;SDS011;378;48.844;9.156;2023-05-10T13:10:39;2.33;;;0.75;;
789;SDS011;378;48.844;9.156;2023-05-10T13:13:06;2.53;;;0.60;;
789;SDS011;378;48.844;9.156;2023-05-10T13:15:34;1.38;;;0.60;;
789;SDS011;378;48.844;9.156;2023-05-10T13:18:01;3.70;;;0.60;;
789;SDS011;378;48.844;9.156;2023-05-10T13:20:29;1.05;;;0.55;;
789;SDS011;378;48.844;9.156;2023-05-10T13:22:56;2.08;;;0.60;;
789;SDS011;378;48.844;9.156;2023-05-10T13:25:23;3.10;;;0.70;;
789;SDS011;378;48.844;9.156;2023-05-10T13:27:49;2.30;;;0.73;;
789;SDS011;378;48.844;9.156;2023-05-10T13:30:16;1.45;;;0.63;;
789;SDS011;378;48.844;9.156;2023-05-10T13:32:43;1.02;;;0.50;;
789;SDS011;378;48.844;9.156;2023-05-10T13:35:10;2.25;;;0.70;;
789;SDS011;378;48.844;9.156;2023-05-10T13:37:38;2.70;;;0.60;;
789;SDS011;378;48.844;9.156;2023-05-10T13:40:06;3.83;;;0.80;;
789;SDS011;378;48.844;9.156;2023-05-10T13:42:33;0.90;;;0.43;;
789;SDS011;378;48.844;9.156;2023-05-10T13:45:00;1.60;;;0.60;;
789;SDS011;378;48.844;9.156;2023-05-10T13:47:27;2.22;;;0.68;;
789;SDS011;378;48.844;9.156;2023-05-10T13:49:54;2.53;;;0.70;;
789;SDS011;378;48.844;9.156;2023-05-10T13:52:21;1.75;;;0.60;;
789;SDS011;378;48.844;9.156;2023-05-10T13:54:49;3.03;;;0.50;;
789;SDS011;378;48.844;9.156;2023-05-10T13:57:17;7.10;;;0.85;;
789;SDS011;378;48.844;9.156;2023-05-10T13:59:44;2.22;;;0.50;;
789;SDS011;378;48.844;9.156;2023-05-10T14:02:11;3.67;;;0.70;;
789;SDS011;378;48.844;9.156;2023-05-10T14:04:38;2.72;;;0.65;;
789;SDS011;378;48.844;9.156;2023-05-10T14:07:05;5.28;;;0.50;;
789;SDS011;378;48.844;9.156;2023-05-10T14:09:31;5.03;;;0.68;;
789;SDS011;378;48.844;9.156;2023-05-10T14:12:00;1.20;;;0.50;;
789;SDS011;378;48.844;9.156;2023-05-10T14:14:27;0.63;;;0.50;;
789;SDS011;378;48.844;9.156;2023-05-10T14:16:54;2.95;;;0.40;;
789;SDS011;378;48.844;9.156;2023-05-10T14:19:21;2.88;;;0.50;;
789;SDS011;378;48.844;9.156;2023-05-10T14:21:48;2.15;;;0.52;;
789;SDS011;378;48.844;9.156;2023-05-10T14:24:14;1.98;;;0.60;;
789;SDS011;378;48.844;9.156;2023-05-10T14:26:41;3.10;;;0.68;;
789;SDS011;378;48.844;9.156;2023-05-10T14:29:09;4.13;;;0.50;;
789;SDS011;378;48.844;9.156;2023-05-10T14:31:36;1.27;;;0.60;;
789;SDS011;378;48.844;9.156;2023-05-10T14:34:03;2.13;;;0.52;;
789;SDS011;378;48.844;9.156;2023-05-10T14:36:30;2.00;;;0.50;;
789;SDS011;378;48.844;9.156;2023-05-10T14:38:57;4.00;;;0.70;;
789;SDS011;378;48.844;9.156;2023-05-10T14:41:24;3.85;;;0.70;;
789;SDS011;378;48.844;9.156;2023-05-10T14:43:51;0.85;;;0.50;;
789;SDS011;378;48.844;9.156;2023-05-10T14:46:19;1.17;;;0.50;;
789;SDS011;378;48.844;9.156;2023-05-10T14:48:46;3.80;;;0.60;;
789;SDS011;378;48.844;9.156;2023-05-10T14:51:13;0.57;;;0.47;;
789;SDS011;378;48.844;9.156;2023-05-10T14:53:40;1.25;;;0.47;;
789;SDS011;378;48.844;9.156;2023-05-10T14:56:07;1.75;;;0.73;;
789;SDS011;378;48.844;9.156;2023-05-10T14:58:34;0.57;;;0.57;;
789;SDS011;378;48.844;9.156;2023-05-10T15:01:00;1.60;;;0.60;;
789;SDS011;378;48.844;9.156;2023-05-10T15:03:29;3.30;;;0.65;;
789;SDS011;378;48.844;9.156;2023-05-10T15:05:55;0.68;;;0.50;;
789;SDS011;378;48.844;9.156;2023-05-10T15:08:22;2.20;;;0.60;;
789;SDS011;378;48.844;9.156;2023-05-10T15:10:49;1.02;;;0.60;;
789;SDS011;378;48.844;9.156;2023-05-10T15:13:16;2.88;;;0.60;;
789;SDS011;378;48.844;9.156;2023-05-10T15:15:43;0.77;;;0.50;;
789;SDS011;378;48.844;9.156;2023-05-10T15:18:10;2.20;;;0.40;;
789;SDS011;378;48.844;9.156;2023-05-10T15:20:38;2.80;;;0.68;;
789;SDS011;378;48.844;9.156;2023-05-10T15:23:05;1.70;;;0.70;;
789;SDS011;378;48.844;9.156;2023-05-10T15:25:32;5.63;;;0.75;;
789;SDS011;378;48.844;9.156;2023-05-10T15:28:02;1.50;;;0.60;;
789;SDS011;378;48.844;9.156;2023-05-10T15:30:29;3.13;;;0.77;;
789;SDS011;378;48.844;9.156;2023-05-10T15:32:56;1.75;;;0.60;;
789;SDS011;378;48.844;9.156;2023-05-10T15:35:23;0.82;;;0.63;;
789;SDS011;378;48.844;9.156;2023-05-10T15:37:52;2.78;;;0.60;;
789;SDS011;378;48.844;9.156;2023-05-10T15:40:19;4.57;;;0.70;;
789;SDS011;378;48.844;9.156;2023-05-10T15:42:46;1.85;;;0.68;;
789;SDS011;378;48.844;9.156;2023-05-10T15:45:13;1.83;;;0.68;;
789;SDS011;378;48.844;9.156;2023-05-10T15:47:41;1.20;;;0.63;;
789;SDS011;378;48.844;9.156;2023-05-10T15:50:09;0.43;;;0.40;;
789;SDS011;378;48.844;9.156;2023-05-10T15:52:36;2.10;;;0.57;;
789;SDS011;378;48.844;9.156;2023-05-10T15:55:05;0.80;;;0.43;;
789;SDS011;378;48.844;9.156;2023-05-10T15:57:36;1.52;;;0.57;;